Time;durP1;ratioP1;P1;durP2;ratioP2;P2;SDS_P1;SDS_P2;PMS_P1;PMS_P2;Temp;Humidity;BMP_temperature;BMP_pressure;BME280_temperature;BME280_humidity;BME280_pressure;Samples;Min_cycle;Max_cycle;Signal;HPM_P1;HPM_P2
2021/09/19 00:00:01;;;;;;;;;;;;;;;15.15;71.08;100331.56;4960100;28;20298;-75
2021/09/19 00:02:27;;;;;;;;;;;;;;;15.10;70.92;100325.97;4969328;28;20088;-74
2021/09/19 00:04:52;;;;;;;;;;;;;;;14.99;72.26;100326.44;4971711;28;20370;-74
2021/09/19 00:07:17;;;;;;;;;;;;;;;14.92;73.56;100326.38;4971306;28;19980;-74
2021/09/19 00:09:42;;;;;;;;;;;;;;;14.79;73.39;100332.31;4967625;28;20017;-74
2021/09/19 00:12:08;;;;;;;;;;;;;;;14.68;74.77;100327.44;4975481;28;19930;-74
2021/09/19 00:14:34;;;;;;;;;;;;;;;14.60;75.82;100332.88;4965418;28;19922;-74
2021/09/19 00:17:00;;;;;;;;;;;;;;;14.52;73.78;100331.09;4969065;28;19933;-74
2021/09/19 00:19:26;;;;;;;;;;;;;;;14.48;73.22;100335.13;4959447;28;20009;-74
2021/09/19 00:21:52;;;;;;;;;;;;;;;14.51;74.47;100325.94;4965459;28;19926;-74
2021/09/19 00:24:18;;;;;;;;;;;;;;;14.53;74.72;100329.25;4967297;28;19922;-74
2021/09/19 00:26:43;;;;;;;;;;;;;;;14.46;75.82;100323.84;4967949;28;20398;-74
2021/09/19 00:29:09;;;;;;;;;;;;;;;14.37;77.08;100314.28;4980667;28;20021;-74
2021/09/19 00:31:37;;;;;;;;;;;;;;;14.35;77.95;100316.28;4969706;28;20476;-74
2021/09/19 00:34:02;;;;;;;;;;;;;;;14.29;76.01;100306.41;4981703;28;20051;-74
2021/09/19 00:36:28;;;;;;;;;;;;;;;14.23;76.79;100311.44;4970849;28;20005;-74
2021/09/19 00:38:54;;;;;;;;;;;;;;;14.23;76.13;100318.59;4978047;28;19922;-74
2021/09/19 00:41:20;;;;;;;;;;;;;;;14.24;75.52;100321.06;4984968;28;19923;-74
2021/09/19 00:43:47;;;;;;;;;;;;;;;14.23;76.87;100306.13;4978855;28;19945;-74
2021/09/19 00:46:12;;;;;;;;;;;;;;;14.18;77.93;100310.31;4985407;28;19929;-74
2021/09/19 00:48:38;;;;;;;;;;;;;;;14.10;77.13;100318.38;4984751;28;20327;-74
2021/09/19 00:51:04;;;;;;;;;;;;;;;14.04;77.68;100314.59;4972272;28;20441;-74
2021/09/19 00:53:35;;;;;;;;;;;;;;;14.01;78.52;100323.78;4968250;28;19922;-74
2021/09/19 00:56:04;;;;;;;;;;;;;;;14.01;77.14;100313.13;4968040;28;19953;-74
2021/09/19 00:58:32;;;;;;;;;;;;;;;13.99;77.56;100309.81;4982930;28;20203;-74
2021/09/19 01:00:58;;;;;;;;;;;;;;;14.02;76.75;100308.63;4961777;28;19977;-74
2021/09/19 01:03:23;;;;;;;;;;;;;;;14.04;77.18;100306.63;4979584;28;19978;-74
2021/09/19 01:05:49;;;;;;;;;;;;;;;14.07;76.86;100300.13;4970532;28;19922;-74
2021/09/19 01:08:15;;;;;;;;;;;;;;;14.03;77.08;100308.44;4982626;28;19922;-74
2021/09/19 01:10:41;;;;;;;;;;;;;;;13.99;75.87;100301.00;4966658;28;19958;-74
2021/09/19 01:13:08;;;;;;;;;;;;;;;14.00;75.85;100302.66;4964556;28;19937;-74
2021/09/19 01:15:34;;;;;;;;;;;;;;;13.91;76.99;100304.56;4967867;28;20450;-74
2021/09/19 01:18:00;;;;;;;;;;;;;;;13.93;75.66;100304.41;4971951;28;20371;-74
2021/09/19 01:20:26;;;;;;;;;;;;;;;13.90;77.76;100302.09;4962427;28;20449;-74
2021/09/19 01:22:59;;;;;;;;;;;;;;;13.87;78.71;100294.47;4977723;28;19930;-74
2021/09/19 01:25:25;;;;;;;;;;;;;;;13.86;78.42;100293.66;4978496;28;19926;-74
2021/09/19 01:27:50;;;;;;;;;;;;;;;13.79;77.99;100290.88;4970620;28;19941;-74
2021/09/19 01:30:15;;;;;;;;;;;;;;;13.71;77.77;100285.63;4959833;28;20273;-74
2021/09/19 01:32:41;;;;;;;;;;;;;;;13.76;77.10;100285.91;4964629;28;19933;-74
2021/09/19 01:35:07;;;;;;;;;;;;;;;13.76;77.87;100293.88;4959804;28;20097;-73
2021/09/19 01:37:33;;;;;;;;;;;;;;;13.85;75.98;100285.84;4969274;28;19922;-73
2021/09/19 01:39:58;;;;;;;;;;;;;;;13.76;78.09;100282.44;4961316;28;20022;-73
2021/09/19 01:42:25;;;;;;;;;;;;;;;13.75;78.30;100286.94;4969843;28;20283;-74
2021/09/19 01:44:51;;;;;;;;;;;;;;;13.71;77.67;100287.47;4958136;28;20366;-73
2021/09/19 01:47:18;;;;;;;;;;;;;;;13.67;78.68;100281.66;4979244;28;19922;-74
2021/09/19 01:49:48;;;;;;;;;;;;;;;13.65;79.10;100275.69;4962730;28;19938;-74
2021/09/19 01:52:15;;;;;;;;;;;;;;;13.59;77.87;100268.47;4979326;28;19926;-74
2021/09/19 01:54:40;;;;;;;;;;;;;;;13.56;78.58;100268.78;4967588;28;19926;-73
2021/09/19 01:57:06;;;;;;;;;;;;;;;13.57;78.96;100265.16;4970160;28;19929;-74
2021/09/19 01:59:32;;;;;;;;;;;;;;;13.56;77.72;100269.66;4956719;28;20293;-74
2021/09/19 02:01:59;;;;;;;;;;;;;;;13.53;79.16;100269.97;4960552;28;19933;-74
2021/09/19 02:04:25;;;;;;;;;;;;;;;13.50;79.06;100270.34;4968946;28;19929;-74
2021/09/19 02:06:51;;;;;;;;;;;;;;;13.47;79.16;100269.88;4967538;28;19923;-74
2021/09/19 02:09:16;;;;;;;;;;;;;;;13.46;78.98;100268.22;4965719;28;19926;-73
2021/09/19 02:11:42;;;;;;;;;;;;;;;13.43;78.56;100265.91;4968258;28;19933;-73
2021/09/19 02:14:08;;;;;;;;;;;;;;;13.46;79.32;100260.25;4967781;28;19925;-74
2021/09/19 02:16:34;;;;;;;;;;;;;;;13.50;79.65;100264.22;4970212;28;20349;-74
2021/09/19 02:19:02;;;;;;;;;;;;;;;13.45;78.84;100261.25;4962650;28;19926;-74
2021/09/19 02:21:28;;;;;;;;;;;;;;;13.44;79.24;100260.41;4962921;28;19968;-74
2021/09/19 02:23:54;;;;;;;;;;;;;;;13.46;77.87;100254.94;4979601;28;19957;-73
2021/09/19 02:26:20;;;;;;;;;;;;;;;13.50;77.62;100254.41;4965425;28;19928;-74
2021/09/19 02:28:46;;;;;;;;;;;;;;;13.58;76.99;100248.19;4982272;28;19969;-74
2021/09/19 02:31:11;;;;;;;;;;;;;;;13.59;77.39;100250.69;4964182;28;19949;-74
2021/09/19 02:33:37;;;;;;;;;;;;;;;13.60;78.38;100240.88;4982868;28;20408;-73
2021/09/19 02:36:06;;;;;;;;;;;;;;;13.62;77.12;100238.88;4964580;28;19931;-74
2021/09/19 02:38:32;;;;;;;;;;;;;;;13.60;77.28;100232.91;4969725;28;19922;-73
2021/09/19 02:40:58;;;;;;;;;;;;;;;13.55;77.42;100230.78;4964014;28;19975;-73
2021/09/19 02:43:23;;;;;;;;;;;;;;;13.51;79.01;100229.47;4956945;28;19923;-74
2021/09/19 02:45:50;;;;;;;;;;;;;;;13.47;79.42;100230.03;4964586;28;20402;-74
2021/09/19 02:48:15;;;;;;;;;;;;;;;13.48;79.28;100231.69;4962450;28;20017;-74
2021/09/19 02:50:41;;;;;;;;;;;;;;;13.46;78.62;100229.19;4959595;28;20072;-73
2021/09/19 02:53:07;;;;;;;;;;;;;;;13.37;79.51;100225.78;4966679;28;19919;-73
2021/09/19 02:55:36;;;;;;;;;;;;;;;13.29;80.74;100230.31;4983405;28;19922;-74
2021/09/19 02:58:02;;;;;;;;;;;;;;;13.30;79.30;100231.97;4961995;28;19990;-73
2021/09/19 03:00:28;;;;;;;;;;;;;;;13.22;81.23;100238.13;4965942;28;20413;-74
2021/09/19 03:02:54;;;;;;;;;;;;;;;13.17;82.10;100230.69;4976919;28;19922;-74
2021/09/19 03:05:20;;;;;;;;;;;;;;;13.15;81.69;100226.56;4965521;28;20318;-74
2021/09/19 03:07:46;;;;;;;;;;;;;;;13.10;81.00;100221.78;4965199;28;20029;-74
2021/09/19 03:10:13;;;;;;;;;;;;;;;13.12;80.24;100219.78;4958019;28;19926;-74
2021/09/19 03:12:38;;;;;;;;;;;;;;;13.09;81.23;100216.66;4970781;28;19919;-73
2021/09/19 03:15:05;;;;;;;;;;;;;;;13.14;80.78;100223.09;4958554;28;19928;-74
2021/09/19 03:17:31;;;;;;;;;;;;;;;13.22;80.15;100216.06;4964731;28;19926;-73
2021/09/19 03:19:57;;;;;;;;;;;;;;;13.22;82.42;100208.91;4964105;28;20286;-73
2021/09/19 03:22:23;;;;;;;;;;;;;;;13.25;80.76;100211.25;4966746;28;20294;-74
2021/09/19 03:24:48;;;;;;;;;;;;;;;13.31;79.81;100215.03;4970495;28;20306;-74
2021/09/19 03:27:14;;;;;;;;;;;;;;;13.34;79.49;100207.53;4954388;28;19929;-74
2021/09/19 03:29:40;;;;;;;;;;;;;;;13.30;80.03;100214.22;4963398;28;19926;-73
2021/09/19 03:32:05;;;;;;;;;;;;;;;13.25;81.15;100227.19;4977634;28;19926;-74
2021/09/19 03:34:33;;;;;;;;;;;;;;;13.23;81.88;100223.88;4961483;28;20430;-73
2021/09/19 03:36:59;;;;;;;;;;;;;;;13.19;82.73;100217.25;4964335;28;20384;-74
2021/09/19 03:39:24;;;;;;;;;;;;;;;13.18;82.61;100215.59;4960109;28;19949;-74
2021/09/19 03:41:49;;;;;;;;;;;;;;;13.16;83.17;100217.59;4969086;28;20338;-74
2021/09/19 03:44:14;;;;;;;;;;;;;;;13.08;83.42;100218.47;4956934;28;19919;-74
2021/09/19 03:46:40;;;;;;;;;;;;;;;13.03;83.16;100220.81;4970104;28;19981;-74
2021/09/19 03:49:05;;;;;;;;;;;;;;;12.94;83.25;100224.53;4958889;28;19926;-73
2021/09/19 03:51:31;;;;;;;;;;;;;;;12.95;83.58;100221.72;4965604;28;19926;-74
2021/09/19 03:53:57;;;;;;;;;;;;;;;12.89;83.56;100222.38;4962222;28;20414;-73
2021/09/19 03:56:24;;;;;;;;;;;;;;;12.84;83.75;100224.75;4959930;28;19962;-74
2021/09/19 03:58:52;;;;;;;;;;;;;;;12.85;83.65;100221.09;4956310;28;19949;-74
2021/09/19 04:01:17;;;;;;;;;;;;;;;12.87;85.18;100216.47;4963757;28;19965;-74
2021/09/19 04:03:43;;;;;;;;;;;;;;;12.88;83.32;100226.06;4964798;28;19926;-74
2021/09/19 04:06:08;;;;;;;;;;;;;;;12.85;83.21;100229.06;4963391;28;19922;-74
2021/09/19 04:08:33;;;;;;;;;;;;;;;12.80;83.80;100225.25;4965491;28;19981;-74
2021/09/19 04:10:59;;;;;;;;;;;;;;;12.86;82.63;100238.66;4966492;28;20294;-74
2021/09/19 04:13:24;;;;;;;;;;;;;;;12.91;82.29;100238.97;4967596;28;19949;-73
2021/09/19 04:15:49;;;;;;;;;;;;;;;12.98;82.92;100240.94;4965111;28;20013;-73
2021/09/19 04:18:16;;;;;;;;;;;;;;;13.02;83.11;100239.59;4971946;28;20000;-74
2021/09/19 04:20:42;;;;;;;;;;;;;;;13.00;84.17;100242.41;4968628;28;19923;-73
2021/09/19 04:23:07;;;;;;;;;;;;;;;13.02;83.07;100236.94;4985926;28;19976;-74
2021/09/19 04:25:32;;;;;;;;;;;;;;;13.03;82.26;100239.41;4970322;28;20276;-73
2021/09/19 04:27:57;;;;;;;;;;;;;;;13.00;82.25;100245.06;4966904;28;19929;-74
2021/09/19 04:30:22;;;;;;;;;;;;;;;12.95;84.01;100242.94;4963741;28;19926;-74
2021/09/19 04:32:48;;;;;;;;;;;;;;;12.95;83.49;100244.78;4965566;28;19930;-74
2021/09/19 04:35:13;;;;;;;;;;;;;;;12.88;84.45;100243.81;4963713;28;19922;-74
2021/09/19 04:37:38;;;;;;;;;;;;;;;12.82;84.18;100247.16;4965875;28;19923;-73
2021/09/19 04:40:07;;;;;;;;;;;;;;;12.73;85.98;100249.84;4972864;28;19958;-74
2021/09/19 04:42:33;;;;;;;;;;;;;;;12.72;86.14;100242.06;4964697;28;19922;-74
2021/09/19 04:44:58;;;;;;;;;;;;;;;12.70;85.01;100246.69;4961855;28;19930;-74
2021/09/19 04:47:23;;;;;;;;;;;;;;;12.67;85.01;100239.91;4968744;28;19937;-73
2021/09/19 04:49:49;;;;;;;;;;;;;;;12.59;84.47;100244.44;4977716;28;19926;-73
2021/09/19 04:52:14;;;;;;;;;;;;;;;12.53;86.34;100244.09;4968567;28;19922;-74
2021/09/19 04:54:39;;;;;;;;;;;;;;;12.53;85.27;100243.28;4986813;28;19926;-74
2021/09/19 04:57:04;;;;;;;;;;;;;;;12.51;86.22;100242.63;4968404;28;19957;-73
2021/09/19 04:59:30;;;;;;;;;;;;;;;12.61;84.57;100242.44;4964735;28;20453;-74
2021/09/19 05:01:55;;;;;;;;;;;;;;;12.71;83.91;100232.44;4971601;28;19922;-73
2021/09/19 05:04:20;;;;;;;;;;;;;;;12.74;84.87;100235.56;4967469;28;19961;-74
2021/09/19 05:06:45;;;;;;;;;;;;;;;12.73;86.31;100241.88;4970958;28;20005;-74
2021/09/19 05:09:10;;;;;;;;;;;;;;;12.82;84.19;100240.00;4960709;28;19989;-74
2021/09/19 05:11:36;;;;;;;;;;;;;;;12.78;85.55;100244.03;4957847;28;19929;-73
2021/09/19 05:14:01;;;;;;;;;;;;;;;12.81;84.46;100238.38;4963260;28;19922;-73
2021/09/19 05:16:26;;;;;;;;;;;;;;;12.79;84.47;100239.53;4970385;28;20307;-73
2021/09/19 05:18:52;;;;;;;;;;;;;;;12.78;85.61;100232.59;4963672;28;20387;-73
2021/09/19 05:21:17;;;;;;;;;;;;;;;12.82;85.32;100242.66;4957563;28;20269;-74
2021/09/19 05:23:42;;;;;;;;;;;;;;;12.85;84.56;100241.50;4961828;28;19965;-74
2021/09/19 05:26:08;;;;;;;;;;;;;;;12.86;85.21;100243.97;4964576;28;19937;-74
2021/09/19 05:28:33;;;;;;;;;;;;;;;12.80;84.39;100250.00;4957981;28;20625;-74
2021/09/19 05:30:58;;;;;;;;;;;;;;;12.79;84.58;100260.78;4967987;28;20005;-73
2021/09/19 05:33:23;;;;;;;;;;;;;;;12.78;86.51;100252.00;4961222;28;19922;-74
2021/09/19 05:35:48;;;;;;;;;;;;;;;12.82;85.76;100245.31;4969692;28;20008;-74
2021/09/19 05:38:14;;;;;;;;;;;;;;;12.81;85.84;100251.63;4963727;28;19926;-74
2021/09/19 05:40:41;;;;;;;;;;;;;;;12.85;86.50;100257.44;4968955;28;19922;-74
2021/09/19 05:43:06;;;;;;;;;;;;;;;12.89;85.24;100256.88;4968074;28;19981;-74
2021/09/19 05:45:31;;;;;;;;;;;;;;;12.92;85.69;100264.53;4979081;28;19921;-74
2021/09/19 05:47:57;;;;;;;;;;;;;;;12.91;86.29;100267.34;4966049;28;19922;-74
2021/09/19 05:50:23;;;;;;;;;;;;;;;12.92;85.93;100261.88;4963768;28;19930;-74
2021/09/19 05:52:48;;;;;;;;;;;;;;;12.98;85.07;100264.81;4971945;28;20367;-74
2021/09/19 05:55:13;;;;;;;;;;;;;;;13.14;83.84;100264.75;4971507;28;19929;-74
2021/09/19 05:57:38;;;;;;;;;;;;;;;13.62;83.56;100268.09;4960066;28;20013;-74
2021/09/19 06:00:04;;;;;;;;;;;;;;;14.28;82.65;100265.69;4985407;23;19937;-75
2021/09/19 06:02:30;;;;;;;;;;;;;;;14.78;82.36;100273.97;4965376;28;19922;-74
2021/09/19 06:04:55;;;;;;;;;;;;;;;14.92;80.69;100269.59;4964015;28;20004;-75
2021/09/19 06:07:20;;;;;;;;;;;;;;;15.21;80.67;100274.88;4967218;28;19937;-74
2021/09/19 06:09:45;;;;;;;;;;;;;;;15.70;76.38;100273.34;4942170;28;19935;-75
2021/09/19 06:12:10;;;;;;;;;;;;;;;16.16;75.32;100266.72;4958591;28;19928;-74
2021/09/19 06:14:36;;;;;;;;;;;;;;;16.79;77.73;100272.88;4957487;28;19923;-75
2021/09/19 06:17:01;;;;;;;;;;;;;;;17.23;71.48;100278.78;4967608;28;19977;-75
2021/09/19 06:19:26;;;;;;;;;;;;;;;17.71;72.63;100271.47;4952921;28;20335;-75
2021/09/19 06:21:51;;;;;;;;;;;;;;;17.85;66.50;100269.63;4958616;28;19954;-75
2021/09/19 06:24:17;;;;;;;;;;;;;;;17.54;67.07;100267.53;4959880;28;19926;-75
2021/09/19 06:26:42;;;;;;;;;;;;;;;17.53;67.28;100272.06;4954813;28;20367;-75
2021/09/19 06:29:07;;;;;;;;;;;;;;;17.85;68.22;100258.13;4935284;28;19985;-75
2021/09/19 06:31:32;;;;;;;;;;;;;;;18.02;66.22;100265.53;4952413;29;20272;-75
2021/09/19 06:33:58;;;;;;;;;;;;;;;18.63;64.37;100264.34;4937252;29;19998;-75
2021/09/19 06:36:23;;;;;;;;;;;;;;;18.65;65.42;100264.16;4955447;28;20009;-75
2021/09/19 06:38:49;;;;;;;;;;;;;;;18.82;63.29;100265.34;4952340;28;19957;-73
2021/09/19 06:41:14;;;;;;;;;;;;;;;18.67;62.62;100259.41;4952419;28;19922;-73
2021/09/19 06:43:39;;;;;;;;;;;;;;;18.52;62.36;100259.69;4960855;28;19949;-75
2021/09/19 06:46:04;;;;;;;;;;;;;;;18.63;61.33;100253.66;4935659;29;20406;-75
2021/09/19 06:48:29;;;;;;;;;;;;;;;18.80;63.17;100250.53;4942084;29;19922;-75
2021/09/19 06:50:55;;;;;;;;;;;;;;;18.56;62.14;100260.88;4935248;29;19989;-75
2021/09/19 06:53:20;;;;;;;;;;;;;;;19.15;60.07;100261.69;4949004;29;20375;-75
2021/09/19 06:55:45;;;;;;;;;;;;;;;19.50;58.30;100255.94;4954140;28;19938;-75
2021/09/19 06:58:10;;;;;;;;;;;;;;;19.31;60.74;100260.38;4955208;28;19978;-76
2021/09/19 07:00:35;;;;;;;;;;;;;;;19.42;60.28;100257.00;4954702;28;20378;-75
2021/09/19 07:03:00;;;;;;;;;;;;;;;19.85;60.45;100258.16;4955545;28;19929;-75
2021/09/19 07:05:26;;;;;;;;;;;;;;;19.79;57.69;100257.19;4952139;28;19926;-75
2021/09/19 07:07:51;;;;;;;;;;;;;;;20.01;59.22;100262.16;4952662;28;19985;-73
2021/09/19 07:10:16;;;;;;;;;;;;;;;20.28;56.66;100262.72;4955452;28;19933;-75
2021/09/19 07:12:41;;;;;;;;;;;;;;;20.43;56.98;100265.06;4957912;28;20417;-73
2021/09/19 07:15:07;;;;;;;;;;;;;;;20.56;57.21;100271.13;4952475;28;19930;-74
2021/09/19 07:17:33;;;;;;;;;;;;;;;21.22;55.33;100271.34;4952166;28;19922;-74
2021/09/19 07:19:59;;;;;;;;;;;;;;;21.54;54.13;100271.94;4955286;28;20414;-74
2021/09/19 07:22:25;;;;;;;;;;;;;;;22.03;53.56;100274.47;4953836;28;20282;-75
2021/09/19 07:24:50;;;;;;;;;;;;;;;21.82;53.10;100268.59;4952979;28;20326;-75
2021/09/19 07:27:15;;;;;;;;;;;;;;;22.03;52.94;100279.88;4952685;29;19929;-74
2021/09/19 07:29:41;;;;;;;;;;;;;;;22.25;51.43;100272.84;4952568;28;20380;-74
2021/09/19 07:32:07;;;;;;;;;;;;;;;22.74;53.12;100274.41;4934483;29;19922;-75
2021/09/19 07:34:36;;;;;;;;;;;;;;;23.44;47.49;100276.88;4952069;28;19922;-75
2021/09/19 07:37:02;;;;;;;;;;;;;;;23.11;48.32;100278.44;4952618;28;19923;-75
2021/09/19 07:39:27;;;;;;;;;;;;;;;23.36;47.95;100282.69;4952952;28;19923;-74
2021/09/19 07:41:55;;;;;;;;;;;;;;;23.93;48.87;100282.59;4953231;28;19923;-75
2021/09/19 07:44:21;;;;;;;;;;;;;;;24.04;45.53;100288.16;4950925;28;20283;-75
2021/09/19 07:46:49;;;;;;;;;;;;;;;24.12;45.50;100283.16;4956003;29;19938;-75
2021/09/19 07:49:14;;;;;;;;;;;;;;;24.05;44.91;100289.78;4942357;28;20061;-75
2021/09/19 07:51:39;;;;;;;;;;;;;;;23.64;44.83;100295.28;4955837;28;20409;-75
2021/09/19 07:54:05;;;;;;;;;;;;;;;22.96;48.23;100285.41;4956818;28;19922;-74
2021/09/19 07:56:30;;;;;;;;;;;;;;;23.32;47.20;100292.31;4955436;28;20013;-74
2021/09/19 07:58:55;;;;;;;;;;;;;;;23.47;46.95;100294.47;4955416;28;19929;-74
2021/09/19 08:01:20;;;;;;;;;;;;;;;23.98;45.39;100297.22;4955544;28;19923;-74
2021/09/19 08:03:47;;;;;;;;;;;;;;;24.24;45.10;100296.56;4938839;29;20017;-74
2021/09/19 08:06:14;;;;;;;;;;;;;;;24.60;44.83;100302.50;4959117;28;19923;-74
2021/09/19 08:08:39;;;;;;;;;;;;;;;25.48;44.70;100296.19;4954949;29;20295;-75
2021/09/19 08:11:04;;;;;;;;;;;;;;;25.49;44.00;100300.56;4955228;28;19923;-74
2021/09/19 08:13:30;;;;;;;;;;;;;;;26.15;40.88;100308.41;4945193;28;19922;-74
2021/09/19 08:15:55;;;;;;;;;;;;;;;25.87;40.16;100307.69;4954448;28;19923;-75
2021/09/19 08:18:20;;;;;;;;;;;;;;;26.03;40.34;100314.88;4940474;28;20279;-74
2021/09/19 08:20:46;;;;;;;;;;;;;;;26.16;41.63;100320.91;4957511;28;19922;-74
2021/09/19 08:23:11;;;;;;;;;;;;;;;26.13;41.24;100313.31;4957293;28;19929;-74
2021/09/19 08:25:36;;;;;;;;;;;;;;;26.49;41.14;100320.56;4938100;29;19922;-74
2021/09/19 08:28:02;;;;;;;;;;;;;;;26.75;38.67;100314.50;4958446;28;19922;-75
2021/09/19 08:30:27;;;;;;;;;;;;;;;26.40;38.64;100318.63;4958784;28;20005;-74
2021/09/19 08:32:52;;;;;;;;;;;;;;;26.44;40.50;100328.69;4946799;29;20103;-74
2021/09/19 08:35:18;;;;;;;;;;;;;;;25.32;41.09;100322.31;4953301;28;19922;-74
2021/09/19 08:37:43;;;;;;;;;;;;;;;25.62;40.29;100313.66;4953774;28;19919;-74
2021/09/19 08:40:09;;;;;;;;;;;;;;;25.29;40.52;100315.53;4953418;28;20045;-75
2021/09/19 08:42:36;;;;;;;;;;;;;;;25.83;41.26;100318.19;4954320;28;19929;-74
2021/09/19 08:45:02;;;;;;;;;;;;;;;26.18;39.21;100326.91;4955609;28;20370;-74
2021/09/19 08:47:28;;;;;;;;;;;;;;;26.79;39.10;100311.00;4953753;29;20017;-74
2021/09/19 08:49:54;;;;;;;;;;;;;;;27.22;38.75;100319.88;4938560;29;19934;-74
2021/09/19 08:52:19;;;;;;;;;;;;;;;28.11;38.89;100317.78;4955973;28;19922;-75
2021/09/19 08:54:44;;;;;;;;;;;;;;;28.89;37.24;100323.84;4953511;28;19922;-75
2021/09/19 08:57:10;;;;;;;;;;;;;;;29.35;34.50;100327.19;4958583;28;19933;-74
2021/09/19 08:59:52;;;;;;;;;;;;;;;29.36;34.18;100328.78;4942011;29;19938;-75
2021/09/19 09:02:18;;;;;;;;;;;;;;;28.06;35.38;100323.22;4959582;28;20290;-75
2021/09/19 09:04:44;;;;;;;;;;;;;;;28.19;35.04;100319.13;4953096;29;19919;-74
2021/09/19 09:07:10;;;;;;;;;;;;;;;28.64;36.06;100324.75;4958357;28;19930;-75
2021/09/19 09:09:35;;;;;;;;;;;;;;;28.53;35.34;100330.25;4936212;29;20016;-75
2021/09/19 09:12:12;;;;;;;;;;;;;;;28.82;37.31;100321.44;4939617;29;19961;-75
2021/09/19 09:14:41;;;;;;;;;;;;;;;29.01;34.37;100329.78;4953735;29;19922;-74
2021/09/19 09:17:11;;;;;;;;;;;;;;;28.90;35.79;100320.84;4956188;28;20224;-75
2021/09/19 09:19:37;;;;;;;;;;;;;;;29.02;36.30;100324.06;4940717;28;19922;-74
2021/09/19 09:22:03;;;;;;;;;;;;;;;29.96;33.13;100320.50;4954113;28;19996;-75
2021/09/19 09:24:28;;;;;;;;;;;;;;;28.63;36.16;100314.97;4958834;28;19922;-75
2021/09/19 09:26:53;;;;;;;;;;;;;;;28.32;36.26;100317.75;4957861;28;20020;-75
2021/09/19 09:29:19;;;;;;;;;;;;;;;28.52;35.09;100308.75;4950010;29;19930;-75
2021/09/19 09:31:44;;;;;;;;;;;;;;;26.96;38.45;100304.53;4961929;28;19930;-75
2021/09/19 09:34:09;;;;;;;;;;;;;;;25.72;40.64;100300.22;4954320;28;19925;-75
2021/09/19 09:36:48;;;;;;;;;;;;;;;25.81;39.87;100322.22;4956894;28;19926;-74
2021/09/19 09:39:20;;;;;;;;;;;;;;;24.83;42.49;100306.84;4958433;28;19922;-75
2021/09/19 09:41:46;;;;;;;;;;;;;;;24.23;43.93;100299.50;4953755;28;19937;-75
2021/09/19 09:44:30;;;;;;;;;;;;;;;23.68;45.49;100298.34;4953326;28;19926;-75
2021/09/19 09:46:56;;;;;;;;;;;;;;;24.53;42.87;100299.97;4960475;28;19929;-75
2021/09/19 09:49:22;;;;;;;;;;;;;;;23.61;45.23;100292.28;4944862;28;19926;-74
2021/09/19 09:51:48;;;;;;;;;;;;;;;23.40;45.92;100302.69;4957987;28;19945;-74
2021/09/19 09:54:13;;;;;;;;;;;;;;;23.76;44.74;100299.84;4935219;29;19922;-74
2021/09/19 09:56:39;;;;;;;;;;;;;;;23.42;45.47;100297.88;4940473;29;19927;-75
2021/09/19 09:59:05;;;;;;;;;;;;;;;23.37;45.45;100302.38;4952111;28;19977;-74
2021/09/19 10:01:30;;;;;;;;;;;;;;;23.00;45.75;100292.78;4955308;28;19926;-74
2021/09/19 10:03:56;;;;;;;;;;;;;;;22.84;47.53;100301.59;4951884;28;19961;-74
2021/09/19 10:06:21;;;;;;;;;;;;;;;22.92;46.20;100298.53;4956806;28;19922;-74
2021/09/19 10:08:46;;;;;;;;;;;;;;;22.24;48.53;100292.78;4953703;28;19926;-74
2021/09/19 10:11:12;;;;;;;;;;;;;;;22.05;48.57;100289.34;4958194;28;19973;-74
2021/09/19 10:13:44;;;;;;;;;;;;;;;21.97;48.49;100299.63;4954440;28;19926;-74
2021/09/19 10:16:09;;;;;;;;;;;;;;;21.53;49.94;100299.91;4950441;28;20334;-75
2021/09/19 10:18:35;;;;;;;;;;;;;;;21.42;50.65;100300.66;4949742;28;19926;-74
2021/09/19 10:21:02;;;;;;;;;;;;;;;21.51;49.66;100299.31;4952408;29;19993;-74
2021/09/19 10:23:29;;;;;;;;;;;;;;;21.19;50.64;100298.69;4951676;28;19976;-74
2021/09/19 10:25:55;;;;;;;;;;;;;;;21.03;50.48;100296.63;4948880;28;19951;-74
2021/09/19 10:28:25;;;;;;;;;;;;;;;20.34;51.83;100286.00;4948709;28;19926;-74
2021/09/19 10:31:12;;;;;;;;;;;;;;;20.26;54.67;100291.66;4951880;29;20434;-74
2021/09/19 10:33:38;;;;;;;;;;;;;;;20.35;53.33;100293.00;4951151;28;19923;-74
2021/09/19 10:36:11;;;;;;;;;;;;;;;20.40;52.60;100282.41;4956882;28;19930;-74
2021/09/19 10:38:37;;;;;;;;;;;;;;;20.17;53.78;100288.44;4952019;28;19966;-74
2021/09/19 10:41:17;;;;;;;;;;;;;;;19.99;54.74;100285.72;4955376;28;20429;-73
2021/09/19 10:43:50;;;;;;;;;;;;;;;20.20;54.53;100284.50;4954547;28;20005;-74
2021/09/19 10:46:34;;;;;;;;;;;;;;;20.48;53.71;100289.38;4951915;28;20005;-74
2021/09/19 10:49:18;;;;;;;;;;;;;;;20.48;54.13;100286.69;4953328;28;20115;-73
2021/09/19 10:51:59;;;;;;;;;;;;;;;20.47;54.75;100291.22;4934806;29;20013;-74
2021/09/19 10:54:45;;;;;;;;;;;;;;;20.69;53.17;100286.28;4951954;28;20402;-73
2021/09/19 10:57:15;;;;;;;;;;;;;;;20.72;53.32;100274.25;4952592;28;19922;-73
2021/09/19 10:59:59;;;;;;;;;;;;;;;20.93;52.70;100276.47;4950519;28;19930;-73
2021/09/19 11:02:28;;;;;;;;;;;;;;;20.92;53.08;100272.13;4947725;28;20379;-73
2021/09/19 11:05:13;;;;;;;;;;;;;;;20.91;52.51;100269.69;4951691;29;20300;-76
2021/09/19 11:07:40;;;;;;;;;;;;;;;20.86;52.63;100269.56;4935089;29;19926;-76
2021/09/19 11:10:07;;;;;;;;;;;;;;;20.64;53.25;100277.22;4951239;29;20260;-76
2021/09/19 11:12:50;;;;;;;;;;;;;;;20.74;52.35;100274.88;4951690;29;20331;-76
2021/09/19 11:15:22;;;;;;;;;;;;;;;21.11;52.76;100269.44;4945394;28;19925;-76
2021/09/19 11:17:49;;;;;;;;;;;;;;;21.32;50.85;100270.78;4952283;29;20395;-76
2021/09/19 11:20:14;;;;;;;;;;;;;;;20.99;52.36;100270.19;4934960;29;19938;-75
2021/09/19 11:22:41;;;;;;;;;;;;;;;20.83;52.25;100268.13;4952937;28;19918;-76
2021/09/19 11:25:06;;;;;;;;;;;;;;;20.52;54.15;100269.91;4952807;29;20009;-76
2021/09/19 11:27:32;;;;;;;;;;;;;;;20.62;52.93;100272.09;4952331;29;20054;-75
2021/09/19 11:29:58;;;;;;;;;;;;;;;20.45;55.42;100273.69;4952527;29;19957;-75
2021/09/19 11:32:23;;;;;;;;;;;;;;;20.47;53.55;100277.78;4951947;29;20447;-76
2021/09/19 11:34:48;;;;;;;;;;;;;;;20.40;54.35;100266.31;4952595;29;19925;-76
2021/09/19 11:37:14;;;;;;;;;;;;;;;20.35;55.46;100266.16;4952543;28;19926;-76
2021/09/19 11:39:39;;;;;;;;;;;;;;;20.57;53.87;100267.41;4944291;29;20276;-76
2021/09/19 11:42:05;;;;;;;;;;;;;;;20.72;53.41;100266.19;4951919;29;20200;-76
2021/09/19 11:44:31;;;;;;;;;;;;;;;20.86;53.64;100262.31;4934061;29;19923;-76
2021/09/19 11:46:56;;;;;;;;;;;;;;;20.94;53.45;100269.22;4952683;29;19939;-76
2021/09/19 11:49:22;;;;;;;;;;;;;;;21.02;52.73;100257.34;4944663;29;19962;-76
2021/09/19 11:51:47;;;;;;;;;;;;;;;20.95;52.51;100262.81;4934789;29;20028;-75
2021/09/19 11:54:14;;;;;;;;;;;;;;;20.98;52.71;100255.13;4951517;28;19918;-76
2021/09/19 11:56:40;;;;;;;;;;;;;;;20.91;52.93;100261.63;4952086;29;20276;-76
2021/09/19 11:59:09;;;;;;;;;;;;;;;20.70;53.79;100261.03;4934292;29;19950;-75
2021/09/19 12:01:34;;;;;;;;;;;;;;;20.46;55.48;100260.06;4951742;29;19929;-76
2021/09/19 12:04:03;;;;;;;;;;;;;;;20.58;55.04;100252.91;4949685;28;20334;-76
2021/09/19 12:06:29;;;;;;;;;;;;;;;20.95;53.64;100252.88;4934283;29;20365;-76
2021/09/19 12:08:54;;;;;;;;;;;;;;;21.05;52.77;100257.72;4951359;29;19922;-76
2021/09/19 12:11:19;;;;;;;;;;;;;;;21.10;52.96;100249.78;4951784;29;19922;-76
2021/09/19 12:13:48;;;;;;;;;;;;;;;21.35;52.55;100252.31;4951756;28;19977;-76
2021/09/19 12:16:15;;;;;;;;;;;;;;;21.51;53.14;100247.38;4947245;29;19926;-77
2021/09/19 12:18:43;;;;;;;;;;;;;;;21.59;52.08;100245.16;4951538;29;20055;-77
2021/09/19 12:21:10;;;;;;;;;;;;;;;21.71;51.82;100252.44;4951724;29;19918;-76
2021/09/19 12:23:43;;;;;;;;;;;;;;;21.56;49.95;100252.88;4951138;29;19919;-77
2021/09/19 12:26:13;;;;;;;;;;;;;;;21.48;51.54;100247.84;4950054;28;20412;-76
2021/09/19 12:28:39;;;;;;;;;;;;;;;21.36;51.60;100248.59;4935732;29;20268;-77
2021/09/19 12:31:05;;;;;;;;;;;;;;;21.12;52.11;100241.50;4937741;29;19969;-77